Terminal Aerodrome Forecast
Issued by NWS Central Illinois

Home | Current Version | Previous Version | Text Only | Print | Product List | Glossary On
Versions: 1 2 3 4 5 6 7 8 9 10 11 12 13 14 15 16 17 18 19 20
000
FTUS43 KILX 241415 AAB
TAFSPI
TAF AMD
KSPI 241415Z 2414/2512 01010KT P6SM BKN009
     FM241500 01010KT P6SM SCT015
      TEMPO 2415/2416 BKN015
     FM242000 36008KT P6SM VCSH BKN040
     FM250500 34005KT P6SM SCT040 BKN110=

USA.gov is the U.S. government's official web portal to all federal, state and local government web resources and services.